Eendracht — PDVN — position and weather

sailwx.info

Track history (hours):
 
Tides and Currents Weather Stations Pressure Air Temp Water Temp Dewpoint Dewpoint Depression Visibility Wind Speed Wind Dir Waves Ship Positions

Eendracht (Netherlands)

Last reported at 2016-Jul-29 07:32 UTC. Time now 2016-Jul-29 07:47 UTC.
Position N 51°23' E 003°46'.

Length 59 m; beam 12 m; draft 5 m.

MMSI: 244543000.

Date/timePositionNaut miles runAvg speedWind from/ knotsBaromVisibWave heightAir tempDewpointWater temp
2016-Jul-29 07:32N 51°23' E 003°46'0 0.0
2016-Jul-29 06:32N 51°23' E 003°46'0 0.0
2016-Jul-29 05:32N 51°23' E 003°46'0 0.0
2016-Jul-29 04:32N 51°23' E 003°46'0 0.0
2016-Jul-29 03:32N 51°23' E 003°46'0 0.0
2016-Jul-29 02:32N 51°23' E 003°46'0 0.0
2016-Jul-29 01:32N 51°23' E 003°46'0 0.0
2016-Jul-29 00:32N 51°23' E 003°46'0 0.0
2016-Jul-28 23:32N 51°23' E 003°46'0 0.0
2016-Jul-28 22:32N 51°23' E 003°46'0 0.0
2016-Jul-28 21:32N 51°23' E 003°46'0 0.1
2016-Jul-28 20:32N 51°23' E 003°46'0 0.0
2016-Jul-28 19:32N 51°23' E 003°46'0 0.0
2016-Jul-28 18:28N 51°23' E 003°46'0 0.0
2016-Jul-28 17:31N 51°23' E 003°46'0 0.0
2016-Jul-28 16:31N 51°23' E 003°46'0 0.0
2016-Jul-28 15:31N 51°23' E 003°46'0 0.1
2016-Jul-28 14:34N 51°23' E 003°46'4 4.3
2016-Jul-28 13:34N 51°25' E 003°40'5 5.0
2016-Jul-28 12:34N 51°25' E 003°32'4 4.2
2016-Jul-28 11:33N 51°25' E 003°25'1 1.3
2016-Jul-28 10:34N 51°24' E 003°24'4 4.4
2016-Jul-28 09:34N 51°23' E 003°17'5 5.2
2016-Jul-28 08:33N 51°22' E 003°09'5 5.0
2016-Jul-28 07:34N 51°21' E 003°01'5 5.0
2016-Jul-28 06:33N 51°21' E 002°53'5 5.1
2016-Jul-28 05:34N 51°21' E 002°45'5 5.2
2016-Jul-28 04:34N 51°21' E 002°36'6 5.6
2016-Jul-28 03:33N 51°21' E 002°27'6 5.8
2016-Jul-28 02:33N 51°18' E 002°19'6 5.7
2016-Jul-28 01:34N 51°17' E 002°10'5 5.5
2016-Jul-28 00:34N 51°20' E 002°03'6 6.4
2016-Jul-27 23:34N 51°24' E 001°55'6 6.4
2016-Jul-27 22:33N 51°28' E 001°47'7 7.1
2016-Jul-27 21:34N 51°29' E 001°35'8 8.1
2016-Jul-27 20:33N 51°28' E 001°22'9 8.7
2016-Jul-27 19:34N 51°29' E 001°08'8 8.0
2016-Jul-27 18:34N 51°29' E 000°56'6 6.5
2016-Jul-27 17:34N 51°30' E 000°46'2 1.5
2016-Jul-27 16:29N 51°31' E 000°43'0 0.0
2016-Jul-27 15:32N 51°31' E 000°43'0 0.0
2016-Jul-27 14:29N 51°31' E 000°43'0 0.0
2016-Jul-27 13:32N 51°31' E 000°43'0 0.0
2016-Jul-27 12:32N 51°31' E 000°43'0 0.0
2016-Jul-27 11:32N 51°31' E 000°43'0 0.0
2016-Jul-27 10:32N 51°31' E 000°43'0 0.0
2016-Jul-27 09:32N 51°31' E 000°43'0 0.4
2016-Jul-27 08:33N 51°31' E 000°44'1 0.5
2016-Jul-27 07:33N 51°30' E 000°45'0 0.0
2016-Jul-27 06:33N 51°30' E 000°45'0 0.1
2016-Jul-27 05:33N 51°30' E 000°44'0 0.0
2016-Jul-27 04:33N 51°30' E 000°44'0 0.0
2016-Jul-27 03:33N 51°30' E 000°44'4 4.0
2016-Jul-27 02:33N 51°30' E 000°51'7 7.0
2016-Jul-27 01:33N 51°30' E 001°02'7 6.9
2016-Jul-27 00:33N 51°29' E 001°13'7 7.3
2016-Jul-26 23:33N 51°29' E 001°25'7 6.9
2016-Jul-26 22:33N 51°31' E 001°35'7 7.1
2016-Jul-26 21:33N 51°34' E 001°45'7 6.5
2016-Jul-26 20:33N 51°38' E 001°54'6 5.9
2016-Jul-26 19:33N 51°41' E 002°02'4 4.1
2016-Jul-26 18:33N 51°43' E 002°08'4 3.5
2016-Jul-26 17:33N 51°43' E 002°14'6 5.7
2016-Jul-26 16:33N 51°47' E 002°06'4 3.6
2016-Jul-26 15:33N 51°48' E 002°11'5 4.9
2016-Jul-26 14:33N 51°51' E 002°18'7 3.4
2016-Jul-26 12:28N 51°58' E 002°21'3 3.5
2016-Jul-26 11:32N 52°01' E 002°19'2 2.2
2016-Jul-26 10:33N 52°04' E 002°18'3 0.9
2016-Jul-26 07:09N 52°07' E 002°18'2 1.4
2016-Jul-26 05:30N 52°06' E 002°22'2 2.0
2016-Jul-26 04:22N 52°07' E 002°26'2 1.8
2016-Jul-26 03:31N 52°05' E 002°25'2 1.7
2016-Jul-26 02:30N 52°04' E 002°26'1 1.2
2016-Jul-26 01:30N 52°03' E 002°28'1 1.3
2016-Jul-26 00:33N 52°03' E 002°30'2 1.7
2016-Jul-25 23:29N 52°02' E 002°32'2 2.5
2016-Jul-25 22:31N 52°01' E 002°35'4 3.8
2016-Jul-25 21:33N 51°59' E 002°41'6 6.0
2016-Jul-25 20:32N 51°57' E 002°50'5 5.4
2016-Jul-25 19:33N 51°54' E 002°57'6 5.6
2016-Jul-25 18:31N 51°51' E 003°05'5 4.8
2016-Jul-25 17:33N 51°48' E 003°11'5 4.7
2016-Jul-25 16:33N 51°45' E 003°17'4 3.5
2016-Jul-25 15:33N 51°42' E 003°19'4 4.0
2016-Jul-25 14:31N 51°38' E 003°21'5 4.8
2016-Jul-25 13:33N 51°34' E 003°25'6 5.7
2016-Jul-25 12:34N 51°29' E 003°30'4 4.5
2016-Jul-25 11:34N 51°26' E 003°35'1 0.6
2016-Jul-25 10:26N 51°27' E 003°35'0 0.0
2016-Jul-25 09:32N 51°27' E 003°35'0 0.0
2016-Jul-25 08:32N 51°27' E 003°35'0 0.0
2016-Jul-25 07:32N 51°27' E 003°35'0 0.0
2016-Jul-25 06:32N 51°27' E 003°35'0 0.0
2016-Jul-25 05:32N 51°27' E 003°35'0 0.0
2016-Jul-25 04:32N 51°27' E 003°35'0 0.0
2016-Jul-25 03:32N 51°27' E 003°35'0 0.0
2016-Jul-25 02:32N 51°27' E 003°35'0 0.0
2016-Jul-25 01:32N 51°27' E 003°35'0 0.0
2016-Jul-25 00:32N 51°27' E 003°35'0 0.0
2016-Jul-24 23:32N 51°27' E 003°35'0 0.0
2016-Jul-24 22:32N 51°27' E 003°35'0 0.0
2016-Jul-24 21:32N 51°27' E 003°35'0 0.0
2016-Jul-24 20:29N 51°27' E 003°35'0 0.0
2016-Jul-24 19:32N 51°27' E 003°35'0 0.0
2016-Jul-24 18:32N 51°27' E 003°35'0 0.0
2016-Jul-24 17:32N 51°27' E 003°35'0 0.0
2016-Jul-24 16:32N 51°27' E 003°35'0 0.0
2016-Jul-24 15:32N 51°27' E 003°35'0 0.0
2016-Jul-24 14:32N 51°27' E 003°35'1 0.5
2016-Jul-24 13:33N 51°27' E 003°36'2 1.6
2016-Jul-24 12:33N 51°27' E 003°33'6 6.0
2016-Jul-24 11:32N 51°31' E 003°26'5 4.8
2016-Jul-24 10:33N 51°34' E 003°21'2 1.6
2016-Jul-24 09:33N 51°35' E 003°18'0 0.4
2016-Jul-24 08:32N 51°35' E 003°18'6 5.7
2016-Jul-24 07:33N 51°30' E 003°13'8 8.2
2016-Jul-24 06:33N 51°27' E 003°02'8 7.9
2016-Jul-24 05:33N 51°20' E 002°55'6 6.1
2016-Jul-24 04:33N 51°14' E 002°56'0 0.3
2016-Jul-24 03:33N 51°13' E 002°56'0 0.0
2016-Jul-24 02:33N 51°13' E 002°56'0 0.0
2016-Jul-24 01:33N 51°13' E 002°56'0 0.0
2016-Jul-24 00:33N 51°13' E 002°56'0 0.0
2016-Jul-23 23:33N 51°13' E 002°56'0 0.0
2016-Jul-23 22:32N 51°13' E 002°56'0 0.0
2016-Jul-23 21:32N 51°13' E 002°56'0 0.0
2016-Jul-23 20:32N 51°13' E 002°56'0 0.0
2016-Jul-23 19:32N 51°13' E 002°56'0 0.0
2016-Jul-23 18:32N 51°13' E 002°56'0 0.0
2016-Jul-23 17:32N 51°13' E 002°56'0 0.0
2016-Jul-23 16:33N 51°13' E 002°56'3 2.5
2016-Jul-23 15:33N 51°16' E 002°54'8 7.7
2016-Jul-23 14:33N 51°23' E 002°50'8 8.0
2016-Jul-23 13:33N 51°29' E 002°42'8 8.3
2016-Jul-23 12:33N 51°35' E 002°32'8 8.0
2016-Jul-23 11:33N 51°40' E 002°22'6 6.1
2016-Jul-23 10:31N 51°46' E 002°20'6 6.0
2016-Jul-23 09:33N 51°50' E 002°28'4 4.4
2016-Jul-23 08:32N 51°50' E 002°35'4 3.7
2016-Jul-23 07:33N 51°49' E 002°41'3 3.3
2016-Jul-23 06:33N 51°47' E 002°45'6 2.6
2016-Jul-23 04:27N 51°44' E 002°53'2 2.3
2016-Jul-23 03:33N 51°42' E 002°55'2 2.2
2016-Jul-23 02:30N 51°42' E 002°59'3 2.6
2016-Jul-23 01:30N 51°40' E 003°02'4 4.2
2016-Jul-23 00:32N 51°40' E 003°09'3 3.4
2016-Jul-22 23:33N 51°39' E 003°04'3 3.1
2016-Jul-22 22:32N 51°38' E 002°59'1 1.0
2016-Jul-22 21:33N 51°39' E 002°59'4 4.1
2016-Jul-22 20:32N 51°40' E 003°06'4 4.6
2016-Jul-22 19:33N 51°40' E 003°13'4 4.2
2016-Jul-22 18:33N 51°38' E 003°19'7 6.7
2016-Jul-22 17:33N 51°33' E 003°26'6 5.8
2016-Jul-22 16:33N 51°28' E 003°31'3 3.3
2016-Jul-22 15:33N 51°27' E 003°36'0 0.4
2016-Jul-22 14:29N 51°27' E 003°35'0 0.0
2016-Jul-22 13:32N 51°27' E 003°35'0 0.0
2016-Jul-22 12:32N 51°27' E 003°35'0 0.0
2016-Jul-22 11:32N 51°27' E 003°35'1 0.5
2016-Jul-22 10:33N 51°27' E 003°36'5 4.9
2016-Jul-22 09:33N 51°29' E 003°29'8 7.8
2016-Jul-22 08:33N 51°37' E 003°24'2 1.7
2016-Jul-22 07:33N 51°38' E 003°26'8 2.6
2016-Jul-22 04:30N 51°32' E 003°17'0 0.0
2016-Jul-22 03:30N 51°32' E 003°17'0 0.0
2016-Jul-22 02:33N 51°32' E 003°17'0 0.1
2016-Jul-22 01:33N 51°32' E 003°17'0 0.0
2016-Jul-22 00:33N 51°32' E 003°17'0 0.0
2016-Jul-21 23:33N 51°32' E 003°17'0 0.0
2016-Jul-21 22:33N 51°32' E 003°17'0 0.0
2016-Jul-21 21:21N 51°32' E 003°17'0 0.0
2016-Jul-21 20:21N 51°32' E 003°17'0 0.1
2016-Jul-21 19:30N 51°32' E 003°17'0 0.0
2016-Jul-21 18:09N 51°32' E 003°17'0 0.0
2016-Jul-21 17:27N 51°32' E 003°17'0 0.0
2016-Jul-21 16:09N 51°32' E 003°17'0 0.0
2016-Jul-21 15:33N 51°32' E 003°17'6 6.1
2016-Jul-21 14:33N 51°31' E 003°08'8 8.3
2016-Jul-21 13:33N 51°28' E 002°55'8 7.6
2016-Jul-21 12:32N 51°27' E 002°42'8 7.7
2016-Jul-21 11:33N 51°26' E 002°31'7 6.7
2016-Jul-21 10:33N 51°24' E 002°20'3 2.6
2016-Jul-21 09:33N 51°23' E 002°16'1 0.9
2016-Jul-21 08:33N 51°23' E 002°17'2 2.1
2016-Jul-21 07:33N 51°24' E 002°15'2 1.6
2016-Jul-21 06:33N 51°24' E 002°13'5 5.1
2016-Jul-21 05:33N 51°20' E 002°07'6 6.2
2016-Jul-21 04:33N 51°24' E 001°59'7 6.6
2016-Jul-21 03:33N 51°29' E 001°51'7 6.8
2016-Jul-21 02:34N 51°29' E 001°40'7 6.9
2016-Jul-21 01:34N 51°29' E 001°29'6 6.2
2016-Jul-21 00:33N 51°29' E 001°19'5 4.7
2016-Jul-20 23:33N 51°29' E 001°12'4 4.5
2016-Jul-20 22:33N 51°29' E 001°04'5 5.0
2016-Jul-20 21:33N 51°29' E 000°56'6 5.6
2016-Jul-20 20:33N 51°30' E 000°48'3 2.7
2016-Jul-20 19:32N 51°31' E 000°43'0 0.0
2016-Jul-20 18:34N 51°31' E 000°43'0 0.0
2016-Jul-20 17:34N 51°31' E 000°43'0 0.0
2016-Jul-20 16:33N 51°31' E 000°43'0 0.0
2016-Jul-20 15:33N 51°31' E 000°43'0 0.0
2016-Jul-20 14:33N 51°31' E 000°43'0 0.0
2016-Jul-20 13:33N 51°31' E 000°43'0 0.0
2016-Jul-20 12:33N 51°31' E 000°43'0 0.0
2016-Jul-20 11:33N 51°31' E 000°43'0 0.0
2016-Jul-20 10:33N 51°31' E 000°43'0 0.3
2016-Jul-20 09:34N 51°31' E 000°43'7 6.6
2016-Jul-20 08:33N 51°30' E 000°53'7 7.0
2016-Jul-20 07:33N 51°30' E 001°05'7 7.0
2016-Jul-20 06:34N 51°29' E 001°16'6 6.1
2016-Jul-20 05:33N 51°29' E 001°26'5 4.6
2016-Jul-20 04:34N 51°31' E 001°33'4 4.2
2016-Jul-20 03:33N 51°32' E 001°39'4 3.6
2016-Jul-20 02:33N 51°34' E 001°44'3 3.4
2016-Jul-20 01:34N 51°35' E 001°50'5 5.3
2016-Jul-20 00:33N 51°30' E 001°48'6 5.5
2016-Jul-19 23:33N 51°24' E 001°46'5 5.5
2016-Jul-19 22:34N 51°19' E 001°43'4 4.2
2016-Jul-19 21:33N 51°15' E 001°41'2 2.2
2016-Jul-19 20:33N 51°13' E 001°39'1 0.9
2016-Jul-19 19:34N 51°12' E 001°38'1 0.9
2016-Jul-19 18:33N 51°12' E 001°39'3 3.2
2016-Jul-19 17:33N 51°15' E 001°38'1 0.8
2016-Jul-19 16:33N 51°14' E 001°37'2 2.3
2016-Jul-19 15:33N 51°12' E 001°36'3 3.1
2016-Jul-19 14:33N 51°09' E 001°34'4 3.9
2016-Jul-19 13:33N 51°07' E 001°28'4 3.7
2016-Jul-19 12:33N 51°06' E 001°23'3 2.9
2016-Jul-19 11:33N 51°07' E 001°27'3 2.8
2016-Jul-19 10:34N 51°08' E 001°31'1 1.3
2016-Jul-19 09:33N 51°09' E 001°33'4 4.5
2016-Jul-19 08:33N 51°12' E 001°38'8 7.5
2016-Jul-19 07:34N 51°17' E 001°46'  
Track history (hours):
 
Tides and Currents Weather Stations Pressure Air Temp Water Temp Dewpoint Dewpoint Depression Visibility Wind Speed Wind Dir Waves Ship Positions

Eendracht (Netherlands)

Last reported at 2016-Jul-29 07:32 UTC. Time now 2016-Jul-29 07:47 UTC.
Position N 51°23' E 003°46'.

Length 59 m; beam 12 m; draft 5 m.

MMSI: 244543000.

Date/timePositionNaut miles runAvg speedWind from/ knotsBaromVisibWave heightAir tempDewpointWater temp
2016-Jul-29 07:32N 51°23' E 003°46'0 0.0
2016-Jul-29 06:32N 51°23' E 003°46'0 0.0
2016-Jul-29 05:32N 51°23' E 003°46'0 0.0
2016-Jul-29 04:32N 51°23' E 003°46'0 0.0
2016-Jul-29 03:32N 51°23' E 003°46'0 0.0
2016-Jul-29 02:32N 51°23' E 003°46'0 0.0
2016-Jul-29 01:32N 51°23' E 003°46'0 0.0
2016-Jul-29 00:32N 51°23' E 003°46'0 0.0
2016-Jul-28 23:32N 51°23' E 003°46'0 0.0
2016-Jul-28 22:32N 51°23' E 003°46'0 0.0
2016-Jul-28 21:32N 51°23' E 003°46'0 0.1
2016-Jul-28 20:32N 51°23' E 003°46'0 0.0
2016-Jul-28 19:32N 51°23' E 003°46'0 0.0
2016-Jul-28 18:28N 51°23' E 003°46'0 0.0
2016-Jul-28 17:31N 51°23' E 003°46'0 0.0
2016-Jul-28 16:31N 51°23' E 003°46'0 0.0
2016-Jul-28 15:31N 51°23' E 003°46'0 0.1
2016-Jul-28 14:34N 51°23' E 003°46'4 4.3
2016-Jul-28 13:34N 51°25' E 003°40'5 5.0
2016-Jul-28 12:34N 51°25' E 003°32'4 4.2
2016-Jul-28 11:33N 51°25' E 003°25'1 1.3
2016-Jul-28 10:34N 51°24' E 003°24'4 4.4
2016-Jul-28 09:34N 51°23' E 003°17'5 5.2
2016-Jul-28 08:33N 51°22' E 003°09'5 5.0
2016-Jul-28 07:34N 51°21' E 003°01'5 5.0
2016-Jul-28 06:33N 51°21' E 002°53'5 5.1
2016-Jul-28 05:34N 51°21' E 002°45'5 5.2
2016-Jul-28 04:34N 51°21' E 002°36'6 5.6
2016-Jul-28 03:33N 51°21' E 002°27'6 5.8
2016-Jul-28 02:33N 51°18' E 002°19'6 5.7
2016-Jul-28 01:34N 51°17' E 002°10'5 5.5
2016-Jul-28 00:34N 51°20' E 002°03'6 6.4
2016-Jul-27 23:34N 51°24' E 001°55'6 6.4
2016-Jul-27 22:33N 51°28' E 001°47'7 7.1
2016-Jul-27 21:34N 51°29' E 001°35'8 8.1
2016-Jul-27 20:33N 51°28' E 001°22'9 8.7
2016-Jul-27 19:34N 51°29' E 001°08'8 8.0
2016-Jul-27 18:34N 51°29' E 000°56'6 6.5
2016-Jul-27 17:34N 51°30' E 000°46'2 1.5
2016-Jul-27 16:29N 51°31' E 000°43'0 0.0
2016-Jul-27 15:32N 51°31' E 000°43'0 0.0
2016-Jul-27 14:29N 51°31' E 000°43'0 0.0
2016-Jul-27 13:32N 51°31' E 000°43'0 0.0
2016-Jul-27 12:32N 51°31' E 000°43'0 0.0
2016-Jul-27 11:32N 51°31' E 000°43'0 0.0
2016-Jul-27 10:32N 51°31' E 000°43'0 0.0
2016-Jul-27 09:32N 51°31' E 000°43'0 0.4
2016-Jul-27 08:33N 51°31' E 000°44'1 0.5
2016-Jul-27 07:33N 51°30' E 000°45'0 0.0
2016-Jul-27 06:33N 51°30' E 000°45'0 0.1
2016-Jul-27 05:33N 51°30' E 000°44'0 0.0
2016-Jul-27 04:33N 51°30' E 000°44'0 0.0
2016-Jul-27 03:33N 51°30' E 000°44'4 4.0
2016-Jul-27 02:33N 51°30' E 000°51'7 7.0
2016-Jul-27 01:33N 51°30' E 001°02'7 6.9
2016-Jul-27 00:33N 51°29' E 001°13'7 7.3
2016-Jul-26 23:33N 51°29' E 001°25'7 6.9
2016-Jul-26 22:33N 51°31' E 001°35'7 7.1
2016-Jul-26 21:33N 51°34' E 001°45'7 6.5
2016-Jul-26 20:33N 51°38' E 001°54'6 5.9
2016-Jul-26 19:33N 51°41' E 002°02'4 4.1
2016-Jul-26 18:33N 51°43' E 002°08'4 3.5
2016-Jul-26 17:33N 51°43' E 002°14'6 5.7
2016-Jul-26 16:33N 51°47' E 002°06'4 3.6
2016-Jul-26 15:33N 51°48' E 002°11'5 4.9
2016-Jul-26 14:33N 51°51' E 002°18'7 3.4
2016-Jul-26 12:28N 51°58' E 002°21'3 3.5
2016-Jul-26 11:32N 52°01' E 002°19'2 2.2
2016-Jul-26 10:33N 52°04' E 002°18'3 0.9
2016-Jul-26 07:09N 52°07' E 002°18'2 1.4
2016-Jul-26 05:30N 52°06' E 002°22'2 2.0
2016-Jul-26 04:22N 52°07' E 002°26'2 1.8
2016-Jul-26 03:31N 52°05' E 002°25'2 1.7
2016-Jul-26 02:30N 52°04' E 002°26'1 1.2
2016-Jul-26 01:30N 52°03' E 002°28'1 1.3
2016-Jul-26 00:33N 52°03' E 002°30'2 1.7
2016-Jul-25 23:29N 52°02' E 002°32'2 2.5
2016-Jul-25 22:31N 52°01' E 002°35'4 3.8
2016-Jul-25 21:33N 51°59' E 002°41'6 6.0
2016-Jul-25 20:32N 51°57' E 002°50'5 5.4
2016-Jul-25 19:33N 51°54' E 002°57'6 5.6
2016-Jul-25 18:31N 51°51' E 003°05'5 4.8
2016-Jul-25 17:33N 51°48' E 003°11'5 4.7
2016-Jul-25 16:33N 51°45' E 003°17'4 3.5
2016-Jul-25 15:33N 51°42' E 003°19'4 4.0
2016-Jul-25 14:31N 51°38' E 003°21'5 4.8
2016-Jul-25 13:33N 51°34' E 003°25'6 5.7
2016-Jul-25 12:34N 51°29' E 003°30'4 4.5
2016-Jul-25 11:34N 51°26' E 003°35'1 0.6
2016-Jul-25 10:26N 51°27' E 003°35'0 0.0
2016-Jul-25 09:32N 51°27' E 003°35'0 0.0
2016-Jul-25 08:32N 51°27' E 003°35'0 0.0
2016-Jul-25 07:32N 51°27' E 003°35'0 0.0
2016-Jul-25 06:32N 51°27' E 003°35'0 0.0
2016-Jul-25 05:32N 51°27' E 003°35'0 0.0
2016-Jul-25 04:32N 51°27' E 003°35'0 0.0
2016-Jul-25 03:32N 51°27' E 003°35'0 0.0
2016-Jul-25 02:32N 51°27' E 003°35'0 0.0
2016-Jul-25 01:32N 51°27' E 003°35'0 0.0
2016-Jul-25 00:32N 51°27' E 003°35'0 0.0
2016-Jul-24 23:32N 51°27' E 003°35'0 0.0
2016-Jul-24 22:32N 51°27' E 003°35'0 0.0
2016-Jul-24 21:32N 51°27' E 003°35'0 0.0
2016-Jul-24 20:29N 51°27' E 003°35'0 0.0
2016-Jul-24 19:32N 51°27' E 003°35'0 0.0
2016-Jul-24 18:32N 51°27' E 003°35'0 0.0
2016-Jul-24 17:32N 51°27' E 003°35'0 0.0
2016-Jul-24 16:32N 51°27' E 003°35'0 0.0
2016-Jul-24 15:32N 51°27' E 003°35'0 0.0
2016-Jul-24 14:32N 51°27' E 003°35'1 0.5
2016-Jul-24 13:33N 51°27' E 003°36'2 1.6
2016-Jul-24 12:33N 51°27' E 003°33'6 6.0
2016-Jul-24 11:32N 51°31' E 003°26'5 4.8
2016-Jul-24 10:33N 51°34' E 003°21'2 1.6
2016-Jul-24 09:33N 51°35' E 003°18'0 0.4
2016-Jul-24 08:32N 51°35' E 003°18'6 5.7
2016-Jul-24 07:33N 51°30' E 003°13'8 8.2
2016-Jul-24 06:33N 51°27' E 003°02'8 7.9
2016-Jul-24 05:33N 51°20' E 002°55'6 6.1
2016-Jul-24 04:33N 51°14' E 002°56'0 0.3
2016-Jul-24 03:33N 51°13' E 002°56'0 0.0
2016-Jul-24 02:33N 51°13' E 002°56'0 0.0
2016-Jul-24 01:33N 51°13' E 002°56'0 0.0
2016-Jul-24 00:33N 51°13' E 002°56'0 0.0
2016-Jul-23 23:33N 51°13' E 002°56'0 0.0
2016-Jul-23 22:32N 51°13' E 002°56'0 0.0
2016-Jul-23 21:32N 51°13' E 002°56'0 0.0
2016-Jul-23 20:32N 51°13' E 002°56'0 0.0
2016-Jul-23 19:32N 51°13' E 002°56'0 0.0
2016-Jul-23 18:32N 51°13' E 002°56'0 0.0
2016-Jul-23 17:32N 51°13' E 002°56'0 0.0
2016-Jul-23 16:33N 51°13' E 002°56'3 2.5
2016-Jul-23 15:33N 51°16' E 002°54'8 7.7
2016-Jul-23 14:33N 51°23' E 002°50'8 8.0
2016-Jul-23 13:33N 51°29' E 002°42'8 8.3
2016-Jul-23 12:33N 51°35' E 002°32'8 8.0
2016-Jul-23 11:33N 51°40' E 002°22'6 6.1
2016-Jul-23 10:31N 51°46' E 002°20'6 6.0
2016-Jul-23 09:33N 51°50' E 002°28'4 4.4
2016-Jul-23 08:32N 51°50' E 002°35'4 3.7
2016-Jul-23 07:33N 51°49' E 002°41'3 3.3
2016-Jul-23 06:33N 51°47' E 002°45'6 2.6
2016-Jul-23 04:27N 51°44' E 002°53'2 2.3
2016-Jul-23 03:33N 51°42' E 002°55'2 2.2
2016-Jul-23 02:30N 51°42' E 002°59'3 2.6
2016-Jul-23 01:30N 51°40' E 003°02'4 4.2
2016-Jul-23 00:32N 51°40' E 003°09'3 3.4
2016-Jul-22 23:33N 51°39' E 003°04'3 3.1
2016-Jul-22 22:32N 51°38' E 002°59'1 1.0
2016-Jul-22 21:33N 51°39' E 002°59'4 4.1
2016-Jul-22 20:32N 51°40' E 003°06'4 4.6
2016-Jul-22 19:33N 51°40' E 003°13'4 4.2
2016-Jul-22 18:33N 51°38' E 003°19'7 6.7
2016-Jul-22 17:33N 51°33' E 003°26'6 5.8
2016-Jul-22 16:33N 51°28' E 003°31'3 3.3
2016-Jul-22 15:33N 51°27' E 003°36'0 0.4
2016-Jul-22 14:29N 51°27' E 003°35'0 0.0
2016-Jul-22 13:32N 51°27' E 003°35'0 0.0
2016-Jul-22 12:32N 51°27' E 003°35'0 0.0
2016-Jul-22 11:32N 51°27' E 003°35'1 0.5
2016-Jul-22 10:33N 51°27' E 003°36'5 4.9
2016-Jul-22 09:33N 51°29' E 003°29'8 7.8
2016-Jul-22 08:33N 51°37' E 003°24'2 1.7
2016-Jul-22 07:33N 51°38' E 003°26'8 2.6
2016-Jul-22 04:30N 51°32' E 003°17'0 0.0
2016-Jul-22 03:30N 51°32' E 003°17'0 0.0
2016-Jul-22 02:33N 51°32' E 003°17'0 0.1
2016-Jul-22 01:33N 51°32' E 003°17'0 0.0
2016-Jul-22 00:33N 51°32' E 003°17'0 0.0
2016-Jul-21 23:33N 51°32' E 003°17'0 0.0
2016-Jul-21 22:33N 51°32' E 003°17'0 0.0
2016-Jul-21 21:21N 51°32' E 003°17'0 0.0
2016-Jul-21 20:21N 51°32' E 003°17'0 0.1
2016-Jul-21 19:30N 51°32' E 003°17'0 0.0
2016-Jul-21 18:09N 51°32' E 003°17'0 0.0
2016-Jul-21 17:27N 51°32' E 003°17'0 0.0
2016-Jul-21 16:09N 51°32' E 003°17'0 0.0
2016-Jul-21 15:33N 51°32' E 003°17'6 6.1
2016-Jul-21 14:33N 51°31' E 003°08'8 8.3
2016-Jul-21 13:33N 51°28' E 002°55'8 7.6
2016-Jul-21 12:32N 51°27' E 002°42'8 7.7
2016-Jul-21 11:33N 51°26' E 002°31'7 6.7
2016-Jul-21 10:33N 51°24' E 002°20'3 2.6
2016-Jul-21 09:33N 51°23' E 002°16'1 0.9
2016-Jul-21 08:33N 51°23' E 002°17'2 2.1
2016-Jul-21 07:33N 51°24' E 002°15'2 1.6
2016-Jul-21 06:33N 51°24' E 002°13'5 5.1
2016-Jul-21 05:33N 51°20' E 002°07'6 6.2
2016-Jul-21 04:33N 51°24' E 001°59'7 6.6
2016-Jul-21 03:33N 51°29' E 001°51'7 6.8
2016-Jul-21 02:34N 51°29' E 001°40'7 6.9
2016-Jul-21 01:34N 51°29' E 001°29'6 6.2
2016-Jul-21 00:33N 51°29' E 001°19'5 4.7
2016-Jul-20 23:33N 51°29' E 001°12'4 4.5
2016-Jul-20 22:33N 51°29' E 001°04'5 5.0
2016-Jul-20 21:33N 51°29' E 000°56'6 5.6
2016-Jul-20 20:33N 51°30' E 000°48'3 2.7
2016-Jul-20 19:32N 51°31' E 000°43'0 0.0
2016-Jul-20 18:34N 51°31' E 000°43'0 0.0
2016-Jul-20 17:34N 51°31' E 000°43'0 0.0
2016-Jul-20 16:33N 51°31' E 000°43'0 0.0
2016-Jul-20 15:33N 51°31' E 000°43'0 0.0
2016-Jul-20 14:33N 51°31' E 000°43'0 0.0
2016-Jul-20 13:33N 51°31' E 000°43'0 0.0
2016-Jul-20 12:33N 51°31' E 000°43'0 0.0
2016-Jul-20 11:33N 51°31' E 000°43'0 0.0
2016-Jul-20 10:33N 51°31' E 000°43'0 0.3
2016-Jul-20 09:34N 51°31' E 000°43'7 6.6
2016-Jul-20 08:33N 51°30' E 000°53'7 7.0
2016-Jul-20 07:33N 51°30' E 001°05'7 7.0
2016-Jul-20 06:34N 51°29' E 001°16'6 6.1
2016-Jul-20 05:33N 51°29' E 001°26'5 4.6
2016-Jul-20 04:34N 51°31' E 001°33'4 4.2
2016-Jul-20 03:33N 51°32' E 001°39'4 3.6
2016-Jul-20 02:33N 51°34' E 001°44'3 3.4
2016-Jul-20 01:34N 51°35' E 001°50'5 5.3
2016-Jul-20 00:33N 51°30' E 001°48'6 5.5
2016-Jul-19 23:33N 51°24' E 001°46'5 5.5
2016-Jul-19 22:34N 51°19' E 001°43'4 4.2
2016-Jul-19 21:33N 51°15' E 001°41'2 2.2
2016-Jul-19 20:33N 51°13' E 001°39'1 0.9
2016-Jul-19 19:34N 51°12' E 001°38'1 0.9
2016-Jul-19 18:33N 51°12' E 001°39'3 3.2
2016-Jul-19 17:33N 51°15' E 001°38'1 0.8
2016-Jul-19 16:33N 51°14' E 001°37'2 2.3
2016-Jul-19 15:33N 51°12' E 001°36'3 3.1
2016-Jul-19 14:33N 51°09' E 001°34'4 3.9
2016-Jul-19 13:33N 51°07' E 001°28'4 3.7
2016-Jul-19 12:33N 51°06' E 001°23'3 2.9
2016-Jul-19 11:33N 51°07' E 001°27'3 2.8
2016-Jul-19 10:34N 51°08' E 001°31'1 1.3
2016-Jul-19 09:33N 51°09' E 001°33'4 4.5
2016-Jul-19 08:33N 51°12' E 001°38'8 7.5
2016-Jul-19 07:34N 51°17' E 001°46'  

Dump ship's entire track history